Time;durP1;ratioP1;P1;durP2;ratioP2;P2;SDS_P1;SDS_P2;PMS_P1;PMS_P2;Temp;Humidity;BMP_temperature;BMP_pressure;BME280_temperature;BME280_humidity;BME280_pressure;Samples;Min_cycle;Max_cycle;Signal;HPM_P1;HPM_P2
2023/01/15 00:01:04;;;;;;;10.45;2.83;;;12.40;99.90;;;;;;5091906;28;20017;-62
2023/01/15 00:03:31;;;;;;;11.07;2.90;;;12.40;99.90;;;;;;5092786;28;20103;-62
2023/01/15 00:06:02;;;;;;;12.05;3.20;;;12.40;99.90;;;;;;5092296;28;20396;-62
2023/01/15 00:08:28;;;;;;;10.35;3.17;;;12.40;99.90;;;;;;5092072;28;20031;-62
2023/01/15 00:10:55;;;;;;;13.52;3.03;;;12.40;99.90;;;;;;5090724;28;20495;-62
2023/01/15 00:13:20;;;;;;;12.98;3.15;;;12.40;99.90;;;;;;5092502;28;20500;-62
2023/01/15 00:15:46;;;;;;;14.32;3.03;;;12.40;99.90;;;;;;5091794;28;20020;-62
2023/01/15 00:18:12;;;;;;;13.02;3.28;;;12.50;99.90;;;;;;5092185;28;20035;-62
2023/01/15 00:20:37;;;;;;;12.75;3.30;;;12.50;99.90;;;;;;5092033;28;20476;-62
2023/01/15 00:23:03;;;;;;;13.30;3.30;;;12.50;99.90;;;;;;5092056;28;20040;-62
2023/01/15 00:28:13;;;;;;;14.50;3.33;;;12.70;99.90;;;;;;5092486;28;20561;-62
2023/01/15 00:30:41;;;;;;;19.38;4.05;;;12.90;99.90;;;;;;5091594;28;20032;-62
2023/01/15 00:33:07;;;;;;;17.13;4.45;;;12.70;99.90;;;;;;5092098;28;20397;-62
2023/01/15 00:35:33;;;;;;;19.33;3.75;;;12.90;99.90;;;;;;5091989;28;20039;-62
2023/01/15 00:37:59;;;;;;;12.23;3.22;;;12.80;99.90;;;;;;5092494;28;20020;-62
2023/01/15 00:40:25;;;;;;;14.98;3.70;;;13.00;99.90;;;;;;5092077;28;20024;-62
2023/01/15 00:42:51;;;;;;;24.02;4.57;;;13.10;99.90;;;;;;5091932;28;20031;-62
2023/01/15 00:45:16;;;;;;;22.48;3.90;;;13.00;99.90;;;;;;5091416;28;20437;-62
2023/01/15 00:47:44;;;;;;;22.50;3.80;;;12.90;99.90;;;;;;5091895;28;20032;-62
2023/01/15 00:50:13;;;;;;;19.65;3.50;;;12.80;99.90;;;;;;5092245;28;20032;-62
2023/01/15 00:52:39;;;;;;;20.70;4.13;;;12.70;99.90;;;;;;5094467;28;20038;-62
2023/01/15 00:55:06;;;;;;;17.48;3.97;;;12.60;99.90;;;;;;5095696;28;20036;-62
2023/01/15 00:57:32;;;;;;;21.50;4.38;;;12.50;99.90;;;;;;5095616;28;20039;-62
2023/01/15 00:59:58;;;;;;;20.63;4.43;;;12.40;99.90;;;;;;5095584;28;20028;-62
2023/01/15 01:02:23;;;;;;;26.80;10.68;;;12.40;99.90;;;;;;5095770;28;20027;-62
2023/01/15 01:04:49;;;;;;;18.98;4.30;;;12.40;99.90;;;;;;5095550;28;20434;-62
2023/01/15 01:07:15;;;;;;;20.90;4.13;;;12.30;99.90;;;;;;5095904;28;20053;-62
2023/01/15 01:09:41;;;;;;;20.50;3.40;;;12.30;99.90;;;;;;5095283;28;20097;-62
2023/01/15 01:12:07;;;;;;;21.60;3.63;;;12.40;99.90;;;;;;5095495;28;20016;-62
2023/01/15 01:14:33;;;;;;;15.93;3.53;;;12.30;99.90;;;;;;5095200;28;20024;-62
2023/01/15 01:16:59;;;;;;;20.13;3.97;;;12.40;99.90;;;;;;5095485;28;20388;-62
2023/01/15 01:19:25;;;;;;;21.55;3.80;;;12.40;99.90;;;;;;5095166;28;20028;-62
2023/01/15 01:21:51;;;;;;;17.60;3.80;;;12.50;99.90;;;;;;5095760;28;20050;-62
2023/01/15 01:24:20;;;;;;;15.63;3.10;;;12.50;99.90;;;;;;5095277;28;20025;-62
2023/01/15 01:26:47;;;;;;;17.48;3.75;;;12.40;99.90;;;;;;5094895;28;20020;-61
2023/01/15 01:29:23;;;;;;;21.08;4.90;;;12.40;99.90;;;;;;5095020;28;20016;-62
2023/01/15 01:31:50;;;;;;;17.90;3.33;;;12.40;99.90;;;;;;5095094;28;20059;-62
2023/01/15 01:34:15;;;;;;;17.45;3.55;;;12.40;99.90;;;;;;5095364;28;20020;-62
2023/01/15 01:36:43;;;;;;;15.27;3.85;;;12.30;99.90;;;;;;5094542;28;20501;-62
2023/01/15 01:39:14;;;;;;;15.75;3.22;;;12.20;99.90;;;;;;5094966;28;20548;-62
2023/01/15 01:41:40;;;;;;;15.18;3.70;;;12.20;99.90;;;;;;5094867;28;20078;-62
2023/01/15 01:44:33;;;;;;;11.70;3.08;;;12.10;99.90;;;;;;5094542;28;20028;-62
2023/01/15 01:47:04;;;;;;;13.20;2.70;;;12.10;99.90;;;;;;5094476;28;20032;-62
2023/01/15 01:49:30;;;;;;;16.85;3.08;;;12.10;99.90;;;;;;5110877;28;20070;-62
2023/01/15 01:52:02;;;;;;;12.32;2.40;;;12.10;99.90;;;;;;5094728;28;20039;-62
2023/01/15 01:54:30;;;;;;;10.05;2.85;;;12.00;99.90;;;;;;5094681;28;20078;-62
2023/01/15 01:56:56;;;;;;;11.45;2.13;;;12.00;99.90;;;;;;5094341;28;20504;-62
2023/01/15 01:59:23;;;;;;;13.68;2.20;;;12.00;99.90;;;;;;5094187;28;20496;-62
2023/01/15 02:01:49;;;;;;;8.40;2.47;;;11.90;99.90;;;;;;5094644;28;20484;-62
2023/01/15 02:04:19;;;;;;;8.35;1.75;;;11.80;99.90;;;;;;5094434;28;20031;-61
2023/01/15 02:06:45;;;;;;;10.40;1.80;;;11.70;99.90;;;;;;5094446;28;20055;-62
2023/01/15 02:09:11;;;;;;;11.98;1.98;;;11.70;99.90;;;;;;5094170;28;20043;-62
2023/01/15 02:11:37;;;;;;;8.80;2.03;;;11.70;99.90;;;;;;5093852;28;20099;-62
2023/01/15 02:14:14;;;;;;;12.48;2.17;;;11.70;99.90;;;;;;5094116;28;20150;-62
2023/01/15 02:16:52;;;;;;;10.75;2.30;;;11.60;99.90;;;;;;5094056;28;20553;-62
2023/01/15 02:19:40;;;;;;;13.90;2.35;;;11.50;99.90;;;;;;5094515;28;20035;-62
2023/01/15 02:22:35;;;;;;;10.15;2.03;;;11.50;99.90;;;;;;5094243;28;20028;-62
2023/01/15 02:25:18;;;;;;;13.63;2.20;;;11.40;99.90;;;;;;5092537;28;20389;-62
2023/01/15 02:27:52;;;;;;;9.15;1.60;;;11.40;99.90;;;;;;5093979;28;20031;-62
2023/01/15 02:30:28;;;;;;;10.55;1.92;;;11.40;99.90;;;;;;5094045;28;20028;-62
2023/01/15 02:32:57;;;;;;;10.70;1.90;;;11.40;99.90;;;;;;5093765;28;20078;-62
2023/01/15 02:35:43;;;;;;;10.90;2.33;;;11.30;99.90;;;;;;5093595;28;20070;-62
2023/01/15 02:38:13;;;;;;;5.15;1.50;;;11.30;99.90;;;;;;5094211;28;20027;-62
2023/01/15 02:40:41;;;;;;;6.43;1.55;;;11.20;99.90;;;;;;5093485;28;20480;-62
2023/01/15 02:43:09;;;;;;;6.03;1.83;;;11.10;99.90;;;;;;5093715;28;20034;-62
2023/01/15 02:45:39;;;;;;;4.85;1.50;;;11.10;99.90;;;;;;5093531;28;20062;-62
2023/01/15 02:48:11;;;;;;;6.50;1.30;;;11.00;99.90;;;;;;5093991;28;20041;-61
2023/01/15 02:50:42;;;;;;;6.55;1.70;;;11.00;99.90;;;;;;5093672;28;20098;-62
2023/01/15 02:53:12;;;;;;;7.38;1.30;;;10.90;99.90;;;;;;5093455;28;20036;-61
2023/01/15 02:55:45;;;;;;;6.25;1.40;;;10.80;99.90;;;;;;5092808;28;20028;-61
2023/01/15 02:58:15;;;;;;;5.18;1.52;;;10.80;99.90;;;;;;5093465;28;20088;-62
2023/01/15 03:00:45;;;;;;;5.32;1.25;;;10.80;99.90;;;;;;5093188;28;20032;-62
2023/01/15 03:03:33;;;;;;;5.38;1.38;;;10.70;99.90;;;;;;5093646;28;20028;-62
2023/01/15 03:06:10;;;;;;;6.22;1.50;;;10.70;99.90;;;;;;5093610;28;20028;-62
2023/01/15 03:08:36;;;;;;;4.55;1.38;;;10.60;99.90;;;;;;5092466;28;20487;-61
2023/01/15 03:11:20;;;;;;;2.97;1.45;;;10.60;99.90;;;;;;5093097;28;20043;-62
2023/01/15 03:14:04;;;;;;;5.13;1.80;;;10.40;99.90;;;;;;5093372;28;20023;-62
2023/01/15 03:16:52;;;;;;;5.35;1.38;;;10.30;99.90;;;;;;5093093;28;20024;-62
2023/01/15 03:19:44;;;;;;;5.82;1.42;;;10.30;99.90;;;;;;5092888;28;20024;-62
2023/01/15 03:22:30;;;;;;;7.10;1.70;;;10.20;99.90;;;;;;5092977;28;20035;-62
2023/01/15 03:25:20;;;;;;;3.75;1.40;;;10.20;99.90;;;;;;5092159;28;20035;-62
2023/01/15 03:27:45;;;;;;;4.47;1.63;;;10.20;99.90;;;;;;5092976;28;20034;-62
2023/01/15 03:30:18;;;;;;;5.60;1.48;;;10.20;99.90;;;;;;5092744;28;20036;-62
2023/01/15 03:32:43;;;;;;;5.25;1.35;;;10.20;99.90;;;;;;5092930;28;20499;-62
2023/01/15 03:35:47;;;;;;;6.95;1.65;;;10.10;99.90;;;;;;5092608;28;20054;-62
2023/01/15 03:38:16;;;;;;;9.30;1.80;;;10.10;99.90;;;;;;5092372;28;20038;-62
2023/01/15 03:41:15;;;;;;;8.85;2.13;;;10.20;99.90;;;;;;5092633;28;20043;-62
2023/01/15 03:43:54;;;;;;;9.13;2.50;;;10.10;99.90;;;;;;5092761;28;20030;-62
2023/01/15 03:46:45;;;;;;;6.68;2.42;;;10.20;99.90;;;;;;5092324;28;20545;-62
2023/01/15 03:49:28;;;;;;;6.45;1.98;;;10.10;99.90;;;;;;5092863;28;20046;-62
2023/01/15 03:52:10;;;;;;;10.68;1.50;;;10.00;99.90;;;;;;5092496;28;20051;-62
2023/01/15 03:54:55;;;;;;;6.68;1.55;;;9.90;99.90;;;;;;5092606;28;20024;-61
2023/01/15 03:57:32;;;;;;;4.85;1.20;;;9.90;99.90;;;;;;5092246;28;20032;-62
2023/01/15 04:00:02;;;;;;;5.45;1.50;;;9.90;99.90;;;;;;5092281;28;20095;-62
2023/01/15 04:02:29;;;;;;;6.53;1.95;;;9.80;99.90;;;;;;5092478;28;20111;-62
2023/01/15 04:04:57;;;;;;;6.32;1.60;;;9.80;99.90;;;;;;5092385;28;20396;-61
2023/01/15 04:07:24;;;;;;;7.55;1.70;;;9.80;99.90;;;;;;5092431;28;20028;-62
2023/01/15 04:09:50;;;;;;;7.78;1.70;;;9.80;99.90;;;;;;5091937;28;20047;-61
2023/01/15 04:12:16;;;;;;;9.73;2.40;;;9.80;99.90;;;;;;5092343;28;20490;-62
2023/01/15 04:14:42;;;;;;;6.43;2.03;;;9.80;99.90;;;;;;5092546;28;20024;-61
2023/01/15 04:17:07;;;;;;;7.55;2.28;;;9.70;99.90;;;;;;5092291;28;20024;-62
2023/01/15 04:19:33;;;;;;;10.25;1.92;;;9.70;99.90;;;;;;5092205;28;20020;-62
2023/01/15 04:21:59;;;;;;;7.60;2.17;;;9.80;99.90;;;;;;5091680;28;20020;-61
2023/01/15 04:24:24;;;;;;;13.50;2.10;;;9.70;99.90;;;;;;5091781;28;20024;-61
2023/01/15 04:26:50;;;;;;;6.05;1.70;;;9.70;99.90;;;;;;5095081;28;20021;-62
2023/01/15 04:29:16;;;;;;;6.90;1.67;;;9.60;99.90;;;;;;5096148;28;20115;-62
2023/01/15 04:31:42;;;;;;;10.15;1.92;;;9.60;99.90;;;;;;5096680;28;20028;-62
2023/01/15 04:34:07;;;;;;;8.48;1.95;;;9.60;99.90;;;;;;5095961;28;20018;-61
2023/01/15 04:36:36;;;;;;;15.32;2.40;;;9.60;99.90;;;;;;5095629;28;20412;-62
2023/01/15 04:39:04;;;;;;;11.55;2.30;;;9.70;99.90;;;;;;5096619;28;20093;-62
2023/01/15 04:44:14;;;;;;;10.45;1.90;;;9.60;99.90;;;;;;5095906;28;20035;-62
2023/01/15 04:46:44;;;;;;;12.45;2.20;;;9.60;99.90;;;;;;5095865;28;20020;-62
2023/01/15 04:49:15;;;;;;;9.98;1.90;;;9.50;99.90;;;;;;5096284;28;20024;-62
2023/01/15 04:51:41;;;;;;;11.55;2.38;;;9.50;99.90;;;;;;5095486;28;20053;-62
2023/01/15 04:54:09;;;;;;;13.00;2.30;;;9.50;99.90;;;;;;5095689;28;20035;-62
2023/01/15 04:56:43;;;;;;;15.27;2.15;;;9.50;99.90;;;;;;5096016;28;20055;-62
2023/01/15 04:59:09;;;;;;;11.45;2.70;;;9.50;99.90;;;;;;5096208;28;20027;-62
2023/01/15 05:01:35;;;;;;;10.98;2.25;;;9.50;99.90;;;;;;5095598;28;20024;-62
2023/01/15 05:04:01;;;;;;;11.35;2.38;;;9.40;99.90;;;;;;5095512;28;20058;-62
2023/01/15 05:06:28;;;;;;;8.68;1.95;;;9.40;99.90;;;;;;5095352;28;20024;-61
2023/01/15 05:08:53;;;;;;;10.65;2.17;;;9.30;99.90;;;;;;5095217;28;20397;-62
2023/01/15 05:11:19;;;;;;;9.88;1.90;;;9.20;99.90;;;;;;5095468;28;20328;-62
2023/01/15 05:13:45;;;;;;;12.23;2.20;;;9.20;99.90;;;;;;5095455;28;20016;-62
2023/01/15 05:16:13;;;;;;;8.63;2.00;;;9.20;99.90;;;;;;5095219;28;20419;-62
2023/01/15 05:18:41;;;;;;;14.95;2.22;;;9.30;99.90;;;;;;5095469;28;20076;-61
2023/01/15 05:21:32;;;;;;;12.50;1.80;;;9.20;99.90;;;;;;5095187;28;20537;-62
2023/01/15 05:24:00;;;;;;;16.60;2.63;;;9.20;99.90;;;;;;5095002;28;20028;-62
2023/01/15 05:26:27;;;;;;;16.73;2.45;;;9.20;99.90;;;;;;5095107;28;20012;-62
2023/01/15 05:28:54;;;;;;;11.32;2.42;;;9.20;99.90;;;;;;5095308;28;20024;-62
2023/01/15 05:31:21;;;;;;;14.98;2.60;;;9.20;99.90;;;;;;5095369;28;20040;-62
2023/01/15 05:33:48;;;;;;;13.57;2.33;;;9.20;99.90;;;;;;5094733;28;20095;-61
2023/01/15 05:36:18;;;;;;;11.82;2.55;;;9.20;99.90;;;;;;5095024;28;20032;-61
2023/01/15 05:38:44;;;;;;;12.43;2.80;;;9.10;99.90;;;;;;5094210;28;20028;-62
2023/01/15 05:44:04;;;;;;;13.95;2.63;;;9.20;99.90;;;;;;5095205;28;20066;-62
2023/01/15 05:46:30;;;;;;;10.43;2.53;;;9.20;99.90;;;;;;5094689;28;20016;-62
2023/01/15 05:49:03;;;;;;;12.38;2.55;;;9.20;99.90;;;;;;5094505;28;20032;-62
2023/01/15 05:51:30;;;;;;;11.63;2.40;;;9.10;99.90;;;;;;5094564;28;20035;-62
2023/01/15 05:53:58;;;;;;;10.43;2.22;;;9.10;99.90;;;;;;5094546;28;20067;-61
2023/01/15 05:56:25;;;;;;;9.93;2.38;;;9.10;99.90;;;;;;5095028;28;20400;-62
2023/01/15 05:58:51;;;;;;;13.10;2.47;;;9.10;99.90;;;;;;5094800;28;20095;-62
2023/01/15 06:01:16;;;;;;;12.75;2.47;;;9.00;99.90;;;;;;5094378;28;20035;-61
2023/01/15 06:03:42;;;;;;;10.25;2.40;;;9.00;99.90;;;;;;5093869;28;20020;-62
2023/01/15 06:06:17;;;;;;;13.45;2.90;;;8.90;99.90;;;;;;5094401;28;20047;-61
2023/01/15 06:08:43;;;;;;;12.45;2.28;;;9.00;99.90;;;;;;5094550;28;20419;-62
2023/01/15 06:11:10;;;;;;;15.70;2.70;;;9.00;99.90;;;;;;5094252;28;20436;-62
2023/01/15 06:13:36;;;;;;;16.00;3.13;;;8.90;99.90;;;;;;5094344;28;20032;-61
2023/01/15 06:16:02;;;;;;;13.93;2.78;;;8.90;99.90;;;;;;5094322;28;20028;-61
2023/01/15 06:18:28;;;;;;;11.80;2.35;;;8.90;99.90;;;;;;5093873;28;20517;-61
2023/01/15 06:20:54;;;;;;;11.98;2.47;;;8.90;99.90;;;;;;5094155;28;20504;-62
2023/01/15 06:23:19;;;;;;;15.68;2.83;;;8.90;99.90;;;;;;5094038;28;20063;-61
2023/01/15 06:25:45;;;;;;;10.98;2.35;;;8.80;99.90;;;;;;5094021;28;20459;-62
2023/01/15 06:28:11;;;;;;;11.30;2.55;;;8.80;99.90;;;;;;5094301;28;20055;-61
2023/01/15 06:30:38;;;;;;;12.07;2.50;;;8.70;99.90;;;;;;5093902;28;20120;-61
2023/01/15 06:33:05;;;;;;;10.55;2.22;;;8.70;99.90;;;;;;5093426;28;20557;-62
2023/01/15 06:35:31;;;;;;;13.43;2.47;;;8.70;99.90;;;;;;5093984;28;20103;-62
2023/01/15 06:37:56;;;;;;;16.02;2.75;;;8.70;99.90;;;;;;5093875;28;20549;-62
2023/01/15 06:40:22;;;;;;;13.52;2.80;;;8.70;99.90;;;;;;5093921;28;20051;-62
2023/01/15 06:48:25;;;;;;;11.05;2.25;;;8.70;99.90;;;;;;5093558;28;20058;-62
2023/01/15 06:50:55;;;;;;;10.90;2.15;;;8.70;99.90;;;;;;5092722;28;20046;-62
2023/01/15 06:53:20;;;;;;;13.93;2.58;;;8.70;99.90;;;;;;5093390;28;20103;-62
2023/01/15 06:55:46;;;;;;;14.23;2.42;;;8.70;99.90;;;;;;5093543;28;20107;-62
2023/01/15 06:58:12;;;;;;;11.25;2.58;;;8.70;99.90;;;;;;5093274;28;20016;-62
2023/01/15 07:00:41;;;;;;;12.55;2.22;;;8.70;99.90;;;;;;5093110;28;20097;-62
2023/01/15 07:03:07;;;;;;;10.70;2.22;;;8.70;99.90;;;;;;5093583;28;20439;-62
2023/01/15 07:05:33;;;;;;;6.55;2.35;;;8.60;99.90;;;;;;5093294;28;20028;-61
2023/01/15 07:07:59;;;;;;;6.30;2.08;;;8.60;99.90;;;;;;5093263;28;20044;-61
2023/01/15 07:10:24;;;;;;;10.18;1.92;;;8.50;99.90;;;;;;5092833;28;20487;-62
2023/01/15 07:12:50;;;;;;;11.85;2.10;;;8.50;99.90;;;;;;5093055;28;20024;-62
2023/01/15 07:15:16;;;;;;;6.50;1.45;;;8.50;99.90;;;;;;5092899;28;20385;-62
2023/01/15 07:17:42;;;;;;;10.30;2.47;;;8.30;99.90;;;;;;5093323;28;20030;-62
2023/01/15 07:20:08;;;;;;;11.23;2.00;;;8.30;99.90;;;;;;5093134;28;20032;-62
2023/01/15 07:22:34;;;;;;;9.43;1.88;;;8.20;99.90;;;;;;5092816;28;20042;-62
2023/01/15 07:25:00;;;;;;;7.28;1.90;;;8.10;99.90;;;;;;5093015;28;20036;-62
2023/01/15 07:27:26;;;;;;;9.32;2.00;;;8.10;99.90;;;;;;5093101;28;20021;-61
2023/01/15 07:29:52;;;;;;;9.00;1.85;;;8.10;99.90;;;;;;5092518;28;20035;-61
2023/01/15 07:32:18;;;;;;;12.27;2.88;;;8.00;99.90;;;;;;5092791;28;20393;-62
2023/01/15 07:34:44;;;;;;;9.50;2.80;;;8.00;99.90;;;;;;5092628;28;20052;-62
2023/01/15 07:37:10;;;;;;;10.93;3.10;;;7.90;99.90;;;;;;5092882;28;20063;-62
2023/01/15 07:39:36;;;;;;;11.32;2.80;;;7.80;99.90;;;;;;5092877;28;20512;-62
2023/01/15 07:50:23;;;;;;;13.68;3.33;;;7.80;99.90;;;;;;5092497;28;20067;-62
2023/01/15 07:52:49;;;;;;;14.85;3.00;;;7.90;99.90;;;;;;5092452;28;20016;-62
2023/01/15 07:55:15;;;;;;;12.23;2.92;;;7.90;99.90;;;;;;5092759;28;20511;-62
2023/01/15 07:57:41;;;;;;;12.32;3.00;;;7.90;99.90;;;;;;5092400;28;20362;-62
2023/01/15 08:00:11;;;;;;;13.05;4.38;;;7.80;99.90;;;;;;5091572;28;20028;-62
2023/01/15 08:02:37;;;;;;;11.32;3.70;;;7.80;99.90;;;;;;5092244;28;20549;-61
2023/01/15 08:05:03;;;;;;;12.00;3.72;;;7.80;99.90;;;;;;5092557;28;20024;-62
2023/01/15 08:07:28;;;;;;;11.15;3.53;;;7.90;99.90;;;;;;5092241;28;20469;-61
2023/01/15 08:09:54;;;;;;;12.43;3.22;;;7.80;99.90;;;;;;5091885;28;20117;-62
2023/01/15 08:15:14;;;;;;;15.13;3.15;;;7.80;99.90;;;;;;5092901;28;20043;-62
2023/01/15 08:17:42;;;;;;;10.48;3.45;;;7.70;99.90;;;;;;5092433;28;20387;-61
2023/01/15 08:20:17;;;;;;;14.35;3.72;;;7.80;99.90;;;;;;5092216;28;20028;-60
2023/01/15 08:22:43;;;;;;;16.08;4.28;;;7.70;99.90;;;;;;5092076;28;20018;-61
2023/01/15 08:25:11;;;;;;;12.35;3.05;;;7.80;99.90;;;;;;5092053;28;20035;-61
2023/01/15 08:27:37;;;;;;;10.20;2.92;;;7.80;99.90;;;;;;5090488;28;20016;-61
2023/01/15 08:30:05;;;;;;;11.55;3.22;;;7.80;99.90;;;;;;5091949;28;20039;-61
2023/01/15 08:32:31;;;;;;;12.23;4.07;;;7.90;99.90;;;;;;5092000;28;20065;-61
2023/01/15 08:34:56;;;;;;;11.93;3.13;;;7.80;99.90;;;;;;5091088;28;20063;-61
2023/01/15 08:37:22;;;;;;;14.95;4.00;;;7.90;99.90;;;;;;5091976;28;20020;-60
2023/01/15 08:39:49;;;;;;;11.98;3.30;;;7.90;99.90;;;;;;5092084;28;20524;-60
2023/01/15 08:42:15;;;;;;;11.65;2.67;;;8.00;99.90;;;;;;5091721;28;20111;-60
2023/01/15 08:44:41;;;;;;;12.10;5.35;;;8.10;99.90;;;;;;5091791;28;20066;-62
2023/01/15 08:47:07;;;;;;;8.93;2.60;;;8.10;99.90;;;;;;5091766;28;20042;-60
2023/01/15 08:49:32;;;;;;;9.13;2.20;;;8.10;99.90;;;;;;5092143;28;20039;-62
2023/01/15 08:51:59;;;;;;;8.60;2.10;;;8.10;99.90;;;;;;5091836;28;20095;-61
2023/01/15 08:54:25;;;;;;;6.93;2.00;;;8.10;99.90;;;;;;5091777;28;20086;-61
2023/01/15 08:56:51;;;;;;;7.68;1.70;;;7.90;99.90;;;;;;5091535;28;20040;-62
2023/01/15 08:59:17;;;;;;;10.98;3.45;;;7.80;99.90;;;;;;5091663;28;20028;-61
2023/01/15 09:01:46;;;;;;;11.75;2.15;;;7.80;99.90;;;;;;5091890;28;20035;-61
2023/01/15 09:04:17;;;;;;;9.73;2.40;;;7.80;99.90;;;;;;5091655;28;20020;-61
2023/01/15 09:06:43;;;;;;;11.90;2.03;;;7.80;99.90;;;;;;5091640;28;20089;-61
2023/01/15 09:09:10;;;;;;;9.48;2.20;;;7.80;99.90;;;;;;5091990;28;20513;-61
2023/01/15 09:11:39;;;;;;;9.20;2.08;;;7.80;99.90;;;;;;5091292;28;20032;-61
2023/01/15 09:14:06;;;;;;;10.23;2.50;;;7.80;99.90;;;;;;5094127;28;20024;-62
2023/01/15 09:16:32;;;;;;;9.63;2.20;;;7.70;99.90;;;;;;5095283;28;20038;-61
2023/01/15 09:18:58;;;;;;;10.85;2.40;;;7.60;99.90;;;;;;5095727;28;20419;-62
2023/01/15 09:21:23;;;;;;;11.07;3.60;;;7.60;99.90;;;;;;5094982;28;20140;-61
2023/01/15 09:23:49;;;;;;;10.52;3.75;;;7.60;99.90;;;;;;5095233;28;20028;-62
2023/01/15 09:26:27;;;;;;;11.55;5.25;;;7.80;99.90;;;;;;5095328;28;20035;-62
2023/01/15 09:28:53;;;;;;;12.73;3.95;;;7.60;99.90;;;;;;5095270;28;20072;-62
2023/01/15 09:31:20;;;;;;;15.07;3.13;;;7.60;99.90;;;;;;5094997;28;20039;-61
2023/01/15 09:33:46;;;;;;;10.27;3.00;;;7.80;99.90;;;;;;5095249;28;20024;-62
2023/01/15 09:36:33;;;;;;;10.27;2.47;;;7.60;99.90;;;;;;5095427;28;20500;-61
2023/01/15 09:39:00;;;;;;;8.77;2.42;;;7.60;99.90;;;;;;5094989;28;20065;-62
2023/01/15 09:45:00;;;;;;;9.60;2.30;;;7.60;99.90;;;;;;5094906;28;20043;-61
2023/01/15 09:47:41;;;;;;;10.38;2.35;;;8.70;99.90;;;;;;5094629;28;20512;-61
2023/01/15 09:50:28;;;;;;;7.38;2.10;;;12.90;99.90;;;;;;5094288;28;20036;-62
2023/01/15 09:53:21;;;;;;;8.50;2.15;;;11.70;99.90;;;;;;5094679;28;20023;-61
2023/01/15 09:55:49;;;;;;;9.55;2.55;;;10.20;99.90;;;;;;5094110;28;20034;-61
2023/01/15 09:58:18;;;;;;;7.90;1.70;;;9.50;99.90;;;;;;5094619;28;20027;-61
2023/01/15 10:00:47;;;;;;;6.00;1.83;;;9.40;99.90;;;;;;5094609;28;20030;-61
2023/01/15 10:03:36;;;;;;;7.47;1.88;;;9.80;99.90;;;;;;5094547;28;20020;-61
2023/01/15 10:06:18;;;;;;;5.97;1.80;;;11.60;99.90;;;;;;5094887;28;20085;-61
2023/01/15 10:08:47;;;;;;;8.05;1.90;;;15.70;99.90;;;;;;5094113;28;20031;-61
2023/01/15 10:11:18;;;;;;;4.75;1.83;;;18.20;99.90;;;;;;5094175;28;20036;-62
2023/01/15 10:14:07;;;;;;;4.72;1.70;;;18.30;99.90;;;;;;5094797;28;20021;-62
2023/01/15 10:16:33;;;;;;;8.45;2.20;;;17.10;99.90;;;;;;5094387;28;20044;-61
2023/01/15 10:19:01;;;;;;;7.88;2.20;;;18.50;99.90;;;;;;5094674;28;20043;-62
2023/01/15 10:21:30;;;;;;;7.70;1.80;;;15.40;99.90;;;;;;5094360;28;20488;-61
2023/01/15 10:24:17;;;;;;;9.35;2.15;;;12.50;99.90;;;;;;5093560;28;20031;-62
2023/01/15 10:26:54;;;;;;;7.22;2.08;;;11.30;99.90;;;;;;5093926;28;20134;-61
2023/01/15 10:29:43;;;;;;;12.45;2.83;;;11.10;99.90;;;;;;5092547;28;20028;-62
2023/01/15 10:32:12;;;;;;;13.52;2.80;;;11.20;99.90;;;;;;5094407;28;20028;-61
2023/01/15 10:35:16;;;;;;;11.32;2.45;;;11.80;99.90;;;;;;5093880;28;20050;-61
2023/01/15 10:38:01;;;;;;;9.70;2.60;;;16.00;99.90;;;;;;5093589;28;20373;-61
2023/01/15 10:40:53;;;;;;;10.85;2.20;;;18.70;99.90;;;;;;5086391;28;20036;-62
2023/01/15 10:43:23;;;;;;;8.93;2.40;;;20.10;99.90;;;;;;5091668;28;20058;-61
2023/01/15 10:45:57;;;;;;;10.25;2.28;;;20.90;99.90;;;;;;5093557;28;20028;-62
2023/01/15 10:48:38;;;;;;;10.70;2.65;;;20.80;99.90;;;;;;5093672;28;20448;-61
2023/01/15 10:51:21;;;;;;;10.10;2.72;;;20.90;99.90;;;;;;5093663;28;20438;-61
2023/01/15 10:54:22;;;;;;;13.02;2.90;;;21.10;99.90;;;;;;5093231;28;20505;-62
2023/01/15 10:57:00;;;;;;;8.93;2.47;;;21.00;99.90;;;;;;5070928;28;20029;-62
2023/01/15 10:59:50;;;;;;;9.70;2.50;;;21.30;99.90;;;;;;5070542;28;20033;-62
2023/01/15 11:02:36;;;;;;;8.90;2.20;;;21.70;99.90;;;;;;5071359;28;20035;-62
2023/01/15 11:05:03;;;;;;;15.43;2.70;;;21.80;99.90;;;;;;5071214;28;20033;-62
2023/01/15 11:07:50;;;;;;;8.60;2.75;;;21.50;99.90;;;;;;5070464;28;20032;-62
2023/01/15 11:10:20;;;;;;;9.68;2.60;;;21.40;99.90;;;;;;5070385;28;20052;-62
2023/01/15 11:22:00;;;;;;;8.23;2.58;;;21.80;99.90;;;;;;5070462;28;20032;-62
2023/01/15 11:24:25;;;;;;;9.38;2.60;;;22.00;99.90;;;;;;5070279;28;20474;-63
2023/01/15 11:26:53;;;;;;;14.85;2.97;;;22.00;99.90;;;;;;5070855;28;20067;-62
2023/01/15 11:29:42;;;;;;;9.13;2.63;;;20.40;99.90;;;;;;5069997;28;20074;-60
2023/01/15 11:32:32;;;;;;;12.50;2.92;;;18.10;99.90;;;;;;5092866;28;20111;-62
2023/01/15 11:35:18;;;;;;;12.35;2.83;;;15.30;99.90;;;;;;5087363;28;20542;-61
2023/01/15 11:37:44;;;;;;;12.73;3.20;;;14.40;99.90;;;;;;5092222;28;20036;-62
2023/01/15 11:40:18;;;;;;;13.02;2.63;;;14.30;99.90;;;;;;5091738;28;20042;-62
2023/01/15 11:51:13;;;;;;;14.38;3.10;;;14.00;99.90;;;;;;5092282;28;20089;-61
2023/01/15 11:53:52;;;;;;;12.40;2.60;;;16.70;99.90;;;;;;5092443;28;20024;-62
2023/01/15 11:56:23;;;;;;;14.45;3.38;;;19.10;99.90;;;;;;5092454;28;20028;-62
2023/01/15 11:59:02;;;;;;;12.98;3.10;;;19.40;99.90;;;;;;5091600;28;20080;-60
2023/01/15 12:01:34;;;;;;;18.63;4.50;;;19.00;99.90;;;;;;5091576;28;20431;-61
2023/01/15 12:04:04;;;;;;;13.65;3.33;;;17.00;99.90;;;;;;5092343;28;20022;-61
2023/01/15 12:06:33;;;;;;;12.73;3.42;;;18.60;99.90;;;;;;5091789;28;20388;-61
2023/01/15 12:09:03;;;;;;;14.27;3.17;;;20.00;99.90;;;;;;5092051;28;20051;-61
2023/01/15 12:11:47;;;;;;;12.82;3.08;;;20.40;99.90;;;;;;5091905;28;20028;-62
2023/01/15 12:14:50;;;;;;;13.57;2.80;;;19.60;99.90;;;;;;5091770;28;20024;-62
2023/01/15 12:17:28;;;;;;;10.77;2.78;;;17.90;99.90;;;;;;5092020;28;20036;-62
2023/01/15 12:19:53;;;;;;;13.18;2.92;;;16.90;99.90;;;;;;5091810;28;20507;-62
2023/01/15 12:22:28;;;;;;;10.23;2.70;;;16.10;99.90;;;;;;5091113;28;20028;-62
2023/01/15 12:25:03;;;;;;;28.90;11.20;;;14.90;99.90;;;;;;5092059;28;20516;-61
2023/01/15 12:27:45;;;;;;;118.35;75.38;;;14.80;99.90;;;;;;5091990;28;20029;-62
2023/01/15 12:30:32;;;;;;;154.27;106.38;;;14.00;99.90;;;;;;5091871;28;20055;-62
2023/01/15 12:33:17;;;;;;;15.90;7.68;;;14.50;99.90;;;;;;5092448;28;20035;-62
2023/01/15 12:36:00;;;;;;;14.45;5.72;;;15.30;99.90;;;;;;5092011;28;20103;-62
2023/01/15 12:38:40;;;;;;;12.73;3.60;;;14.90;99.90;;;;;;5092052;28;20020;-62
2023/01/15 12:45:13;;;;;;;16.33;4.13;;;13.70;99.90;;;;;;5091830;28;20035;-63
2023/01/15 12:47:52;;;;;;;16.50;4.30;;;13.40;99.90;;;;;;5092386;28;20046;-62
2023/01/15 12:50:21;;;;;;;12.48;3.80;;;14.30;99.90;;;;;;5095412;28;20068;-63
2023/01/15 12:52:53;;;;;;;13.38;3.63;;;14.80;99.90;;;;;;5095849;28;20020;-63
2023/01/15 12:55:28;;;;;;;13.32;3.30;;;15.00;99.90;;;;;;5095840;28;20024;-63
2023/01/15 12:58:01;;;;;;;15.23;3.85;;;15.20;99.90;;;;;;5095978;28;20036;-62
2023/01/15 13:00:42;;;;;;;17.80;4.18;;;14.90;99.90;;;;;;5095557;28;20475;-62
2023/01/15 13:03:40;;;;;;;14.07;2.78;;;14.80;99.90;;;;;;5095462;28;20024;-62
2023/01/15 13:06:08;;;;;;;15.05;3.08;;;14.70;99.90;;;;;;5072742;28;20520;-63
2023/01/15 13:08:45;;;;;;;12.85;2.88;;;14.40;99.90;;;;;;5072826;28;20029;-62
2023/01/15 13:11:12;;;;;;;14.50;3.17;;;13.90;99.90;;;;;;5073324;28;20483;-62
2023/01/15 13:13:40;;;;;;;15.07;3.22;;;13.90;99.90;;;;;;5073050;28;20024;-62
2023/01/15 13:16:23;;;;;;;17.48;3.40;;;13.60;99.90;;;;;;5072720;28;20112;-61
2023/01/15 13:19:05;;;;;;;18.60;4.47;;;12.90;99.90;;;;;;5072016;28;20078;-62
2023/01/15 13:21:35;;;;;;;15.68;3.78;;;13.00;99.90;;;;;;5072871;28;20170;-62
2023/01/15 13:24:37;;;;;;;20.20;3.78;;;13.10;99.90;;;;;;5072557;28;20044;-61
2023/01/15 13:27:14;;;;;;;12.10;3.50;;;13.10;99.90;;;;;;5072048;28;20472;-60
2023/01/15 13:29:52;;;;;;;16.77;3.75;;;13.20;99.90;;;;;;5072333;28;20053;-60
2023/01/15 13:32:17;;;;;;;18.65;3.90;;;13.20;99.90;;;;;;5072190;28;20029;-60
2023/01/15 13:35:16;;;;;;;15.75;3.90;;;13.00;99.90;;;;;;5072497;28;20027;-61
2023/01/15 13:37:52;;;;;;;13.43;3.15;;;13.10;99.90;;;;;;5072632;28;20541;-60
2023/01/15 13:40:37;;;;;;;19.05;3.42;;;13.00;99.90;;;;;;5072881;28;20032;-61
2023/01/15 13:43:05;;;;;;;13.98;3.60;;;12.80;99.90;;;;;;5083042;28;20040;-61
2023/01/15 13:45:43;;;;;;;14.68;3.22;;;12.90;99.90;;;;;;5094960;28;20028;-60
2023/01/15 13:48:40;;;;;;;14.65;3.13;;;12.80;99.90;;;;;;5094487;28;20063;-61
2023/01/15 13:51:25;;;;;;;15.90;3.60;;;12.60;99.90;;;;;;5095106;28;20487;-61
2023/01/15 13:53:51;;;;;;;15.18;3.08;;;12.60;99.90;;;;;;5095331;28;20028;-62
2023/01/15 13:56:28;;;;;;;16.27;3.42;;;12.50;99.90;;;;;;5094913;28;20028;-60